Time;durP1;ratioP1;P1;durP2;ratioP2;P2;SDS_P1;SDS_P2;PMS_P1;PMS_P2;Temp;Humidity;BMP_temperature;BMP_pressure;BME280_temperature;BME280_humidity;BME280_pressure;Samples;Min_cycle;Max_cycle;Signal;HPM_P1;HPM_P2
2021/12/03 00:00:04;;;;;;;5.68;1.85;;;;;;;;;;5048265;28;20029;-57
2021/12/03 00:02:30;;;;;;;6.85;2.03;;;;;;;;;;5050540;28;20107;-55
2021/12/03 00:04:56;;;;;;;5.53;2.10;;;;;;;;;;5043613;28;20159;-56
2021/12/03 00:07:22;;;;;;;4.88;1.92;;;;;;;;;;5052166;28;20477;-57
2021/12/03 00:09:48;;;;;;;3.30;1.83;;;;;;;;;;5045424;28;20393;-57
2021/12/03 00:12:14;;;;;;;6.60;1.60;;;;;;;;;;5049705;28;20163;-56
2021/12/03 00:14:40;;;;;;;3.03;1.58;;;;;;;;;;5048930;28;20025;-54
2021/12/03 00:17:06;;;;;;;5.07;1.80;;;;;;;;;;5055828;28;20115;-57
2021/12/03 00:19:32;;;;;;;4.15;1.65;;;;;;;;;;5051310;28;20436;-53
2021/12/03 00:21:58;;;;;;;7.70;2.08;;;;;;;;;;5054742;28;20066;-52
2021/12/03 00:24:24;;;;;;;5.75;1.60;;;;;;;;;;5052072;28;20033;-54
2021/12/03 00:26:50;;;;;;;4.20;1.60;;;;;;;;;;5050239;28;20158;-54
2021/12/03 00:29:16;;;;;;;4.03;1.75;;;;;;;;;;5053329;28;20087;-52
2021/12/03 00:31:42;;;;;;;3.92;1.38;;;;;;;;;;5056573;28;20037;-54
2021/12/03 00:34:08;;;;;;;2.83;1.60;;;;;;;;;;5043904;28;20566;-53
2021/12/03 00:36:34;;;;;;;5.03;1.88;;;;;;;;;;5045153;28;20034;-56
2021/12/03 00:39:01;;;;;;;4.65;1.52;;;;;;;;;;5051470;28;20014;-52
2021/12/03 00:41:32;;;;;;;6.18;2.30;;;;;;;;;;5049573;28;20036;-51
2021/12/03 00:43:58;;;;;;;8.80;2.00;;;;;;;;;;5050312;28;20021;-56
2021/12/03 00:46:24;;;;;;;2.78;1.50;;;;;;;;;;5051458;28;20071;-57
2021/12/03 00:48:51;;;;;;;3.00;1.38;;;;;;;;;;5055068;28;20633;-53
2021/12/03 00:51:18;;;;;;;3.90;1.63;;;;;;;;;;5053974;28;20108;-53
2021/12/03 00:53:45;;;;;;;5.00;1.40;;;;;;;;;;5049803;28;20029;-55
2021/12/03 00:56:11;;;;;;;7.88;2.17;;;;;;;;;;5052491;28;20025;-52
2021/12/03 00:58:37;;;;;;;5.47;1.80;;;;;;;;;;5047900;28;20409;-53
2021/12/03 01:01:04;;;;;;;3.65;1.65;;;;;;;;;;5040915;28;20037;-57
2021/12/03 01:03:30;;;;;;;7.03;2.03;;;;;;;;;;5048915;28;20021;-56
2021/12/03 01:05:56;;;;;;;6.95;1.55;;;;;;;;;;5054603;28;20036;-56
2021/12/03 01:08:22;;;;;;;8.13;1.95;;;;;;;;;;5056857;28;20037;-56
2021/12/03 01:10:48;;;;;;;7.78;2.15;;;;;;;;;;5051218;28;20039;-56
2021/12/03 01:13:14;;;;;;;4.72;1.65;;;;;;;;;;5058002;28;20104;-56
2021/12/03 01:15:41;;;;;;;3.92;1.80;;;;;;;;;;5054214;28;20060;-55
2021/12/03 01:18:08;;;;;;;7.25;1.70;;;;;;;;;;5050661;28;20112;-55
2021/12/03 01:20:35;;;;;;;5.85;2.28;;;;;;;;;;5048031;28;20147;-55
2021/12/03 01:23:01;;;;;;;4.78;1.90;;;;;;;;;;5050467;28;20032;-57
2021/12/03 01:25:27;;;;;;;5.18;1.77;;;;;;;;;;5057927;28;20454;-51
2021/12/03 01:27:53;;;;;;;7.60;2.20;;;;;;;;;;5056757;28;20492;-56
2021/12/03 01:30:21;;;;;;;6.28;2.22;;;;;;;;;;5055005;28;20032;-51
2021/12/03 01:32:48;;;;;;;3.65;2.28;;;;;;;;;;5050155;28;20095;-55
2021/12/03 01:35:14;;;;;;;3.75;2.10;;;;;;;;;;5058042;28;20103;-55
2021/12/03 01:37:41;;;;;;;5.28;2.28;;;;;;;;;;5053328;28;20045;-53
2021/12/03 01:40:09;;;;;;;7.75;2.67;;;;;;;;;;5052614;28;20035;-54
2021/12/03 01:42:37;;;;;;;3.60;2.20;;;;;;;;;;5058438;28;20028;-56
2021/12/03 01:45:03;;;;;;;4.93;2.40;;;;;;;;;;5053749;28;20039;-55
2021/12/03 01:47:29;;;;;;;8.18;2.58;;;;;;;;;;5052235;28;20044;-54
2021/12/03 01:49:55;;;;;;;6.88;2.58;;;;;;;;;;5049249;28;20025;-53
2021/12/03 01:52:21;;;;;;;6.10;2.60;;;;;;;;;;5049566;28;20037;-51
2021/12/03 01:54:47;;;;;;;8.55;2.92;;;;;;;;;;5052129;28;20124;-54
2021/12/03 01:57:13;;;;;;;7.00;2.88;;;;;;;;;;5052087;28;20036;-51
2021/12/03 01:59:39;;;;;;;5.47;2.88;;;;;;;;;;5050196;28;20025;-54
2021/12/03 02:02:05;;;;;;;9.02;2.60;;;;;;;;;;5051819;28;20029;-55
2021/12/03 02:04:31;;;;;;;4.82;2.53;;;;;;;;;;5051128;28;20023;-56
2021/12/03 02:06:58;;;;;;;10.07;2.80;;;;;;;;;;5050151;28;20720;-53
2021/12/03 02:09:24;;;;;;;4.65;2.65;;;;;;;;;;5055241;28;20623;-54
2021/12/03 02:11:50;;;;;;;7.65;3.38;;;;;;;;;;5041465;28;20069;-53
2021/12/03 02:14:16;;;;;;;8.07;2.70;;;;;;;;;;5046881;28;20033;-55
2021/12/03 02:16:45;;;;;;;7.38;3.13;;;;;;;;;;5051232;28;20048;-54
2021/12/03 02:19:11;;;;;;;7.47;2.97;;;;;;;;;;5050678;28;20104;-55
2021/12/03 02:21:37;;;;;;;6.82;3.05;;;;;;;;;;5049685;28;20029;-55
2021/12/03 02:24:03;;;;;;;5.53;2.90;;;;;;;;;;5053352;28;20037;-55
2021/12/03 02:26:29;;;;;;;7.68;3.47;;;;;;;;;;5048448;28;20037;-53
2021/12/03 02:28:55;;;;;;;6.72;2.30;;;;;;;;;;5054406;28;20040;-56
2021/12/03 02:31:23;;;;;;;7.63;2.80;;;;;;;;;;5054840;28;20108;-54
2021/12/03 02:33:49;;;;;;;6.13;2.95;;;;;;;;;;5051721;28;20112;-52
2021/12/03 02:36:16;;;;;;;5.70;2.42;;;;;;;;;;5047758;28;21665;-53
2021/12/03 02:38:42;;;;;;;5.72;2.85;;;;;;;;;;5049270;28;20026;-50
2021/12/03 02:41:08;;;;;;;6.75;3.03;;;;;;;;;;5047867;28;20100;-52
2021/12/03 02:43:35;;;;;;;5.28;2.00;;;;;;;;;;5057261;28;20020;-52
2021/12/03 02:46:01;;;;;;;5.53;2.63;;;;;;;;;;5058638;28;20573;-53
2021/12/03 02:48:27;;;;;;;6.13;2.38;;;;;;;;;;5059657;28;20099;-52
2021/12/03 02:50:54;;;;;;;4.60;2.28;;;;;;;;;;5049075;28;20175;-53
2021/12/03 02:53:20;;;;;;;4.22;2.05;;;;;;;;;;5052985;28;20121;-56
2021/12/03 02:55:46;;;;;;;6.45;2.50;;;;;;;;;;5049787;28;20115;-56
2021/12/03 02:58:12;;;;;;;3.70;2.08;;;;;;;;;;5048355;28;20043;-54
2021/12/03 03:00:39;;;;;;;5.82;2.45;;;;;;;;;;5052418;28;20045;-54
2021/12/03 03:03:05;;;;;;;2.97;1.92;;;;;;;;;;5050677;28;20022;-56
2021/12/03 03:05:32;;;;;;;4.88;2.30;;;;;;;;;;5043632;28;20096;-55
2021/12/03 03:07:58;;;;;;;4.85;2.40;;;;;;;;;;5041137;28;20018;-55
2021/12/03 03:10:28;;;;;;;3.63;2.03;;;;;;;;;;5047495;28;20028;-54
2021/12/03 03:12:54;;;;;;;8.30;1.95;;;;;;;;;;5045252;28;20351;-54
2021/12/03 03:15:20;;;;;;;6.88;2.15;;;;;;;;;;5053007;28;20103;-56
2021/12/03 03:17:46;;;;;;;4.95;2.00;;;;;;;;;;5047946;28;20118;-56
2021/12/03 03:20:13;;;;;;;3.83;1.80;;;;;;;;;;5052878;28;20508;-56
2021/12/03 03:22:40;;;;;;;4.03;2.20;;;;;;;;;;5040726;28;20105;-54
2021/12/03 03:25:07;;;;;;;4.82;1.58;;;;;;;;;;5041813;28;20436;-51
2021/12/03 03:27:33;;;;;;;3.95;2.00;;;;;;;;;;5039051;28;20039;-55
2021/12/03 03:30:00;;;;;;;3.45;1.70;;;;;;;;;;5044727;28;20524;-54
2021/12/03 03:32:27;;;;;;;4.57;2.15;;;;;;;;;;5051224;28;20033;-56
2021/12/03 03:34:53;;;;;;;5.10;2.13;;;;;;;;;;5050479;28;20039;-54
2021/12/03 03:37:20;;;;;;;8.65;2.03;;;;;;;;;;5050949;28;20552;-51
2021/12/03 03:39:46;;;;;;;3.15;1.98;;;;;;;;;;5050952;28;20029;-52
2021/12/03 03:42:12;;;;;;;3.67;2.10;;;;;;;;;;5053292;28;20455;-50
2021/12/03 03:44:38;;;;;;;6.82;2.15;;;;;;;;;;5044387;28;20025;-51
2021/12/03 03:47:06;;;;;;;4.10;1.98;;;;;;;;;;5049279;28;20497;-53
2021/12/03 03:49:32;;;;;;;3.03;1.80;;;;;;;;;;5054790;28;20057;-55
2021/12/03 03:51:58;;;;;;;7.15;2.30;;;;;;;;;;5053723;28;20404;-53
2021/12/03 03:54:24;;;;;;;8.40;2.53;;;;;;;;;;5038698;28;20032;-55
2021/12/03 03:56:51;;;;;;;3.58;1.88;;;;;;;;;;5047538;28;20021;-56
2021/12/03 03:59:17;;;;;;;5.60;1.73;;;;;;;;;;5048667;28;20021;-53
2021/12/03 04:01:50;;;;;;;2.85;1.75;;;;;;;;;;5050675;28;20036;-56
2021/12/03 04:04:17;;;;;;;5.38;2.58;;;;;;;;;;5054469;28;20373;-55
2021/12/03 04:06:43;;;;;;;5.50;1.70;;;;;;;;;;5054371;28;20653;-54
2021/12/03 04:09:09;;;;;;;5.75;1.70;;;;;;;;;;5051440;28;20033;-54
2021/12/03 04:11:36;;;;;;;6.63;1.65;;;;;;;;;;5043121;28;20037;-56
2021/12/03 04:14:02;;;;;;;3.63;2.45;;;;;;;;;;5050733;28;20119;-56
2021/12/03 04:16:28;;;;;;;2.78;1.65;;;;;;;;;;5040360;28;20601;-55
2021/12/03 04:18:54;;;;;;;5.18;2.00;;;;;;;;;;5049786;28;20044;-55
2021/12/03 04:21:21;;;;;;;4.15;2.15;;;;;;;;;;5047820;28;20029;-51
2021/12/03 04:23:47;;;;;;;3.97;2.00;;;;;;;;;;5047665;28;20040;-52
2021/12/03 04:26:13;;;;;;;4.05;1.83;;;;;;;;;;5041582;28;20462;-54
2021/12/03 04:28:40;;;;;;;4.13;1.83;;;;;;;;;;5049129;28;20042;-54
2021/12/03 04:31:06;;;;;;;5.43;1.80;;;;;;;;;;5051744;28;20485;-51
2021/12/03 04:33:32;;;;;;;4.72;1.55;;;;;;;;;;5055092;28;20481;-53
2021/12/03 04:35:58;;;;;;;3.97;1.50;;;;;;;;;;5045608;28;20064;-54
2021/12/03 04:38:24;;;;;;;5.47;1.90;;;;;;;;;;5058249;28;20020;-55
2021/12/03 04:40:50;;;;;;;3.65;1.50;;;;;;;;;;5061091;28;20036;-54
2021/12/03 04:43:16;;;;;;;3.08;1.48;;;;;;;;;;5046677;28;20420;-54
2021/12/03 04:45:42;;;;;;;2.75;1.40;;;;;;;;;;5044344;28;20044;-56
2021/12/03 04:48:08;;;;;;;5.13;1.60;;;;;;;;;;5049888;28;20025;-52
2021/12/03 04:50:35;;;;;;;5.35;2.28;;;;;;;;;;5034600;28;20025;-56
2021/12/03 04:53:02;;;;;;;5.22;1.65;;;;;;;;;;5050859;28;20021;-53
2021/12/03 04:55:28;;;;;;;2.28;1.55;;;;;;;;;;5041872;28;20108;-50
2021/12/03 04:57:54;;;;;;;5.70;1.35;;;;;;;;;;5045451;28;20036;-56
2021/12/03 05:00:22;;;;;;;2.83;1.42;;;;;;;;;;5051684;28;20351;-54
2021/12/03 05:02:49;;;;;;;5.57;1.73;;;;;;;;;;5049163;28;20116;-55
2021/12/03 05:05:16;;;;;;;3.65;1.83;;;;;;;;;;5044469;28;20025;-53
2021/12/03 05:07:57;;;;;;;3.40;1.75;;;;;;;;;;5051263;28;20111;-56
2021/12/03 05:10:23;;;;;;;3.63;1.38;;;;;;;;;;5050259;28;20036;-55
2021/12/03 05:12:50;;;;;;;9.93;1.92;;;;;;;;;;5051325;28;20063;-55
2021/12/03 05:15:16;;;;;;;9.30;1.73;;;;;;;;;;5053186;28;20100;-54
2021/12/03 05:17:42;;;;;;;2.67;1.25;;;;;;;;;;5045646;28;20104;-53
2021/12/03 05:20:08;;;;;;;4.32;1.50;;;;;;;;;;5045387;28;20032;-55
2021/12/03 05:22:34;;;;;;;4.82;1.83;;;;;;;;;;5053389;28;20033;-55
2021/12/03 05:25:00;;;;;;;9.18;1.70;;;;;;;;;;5050536;28;20075;-50
2021/12/03 05:27:26;;;;;;;4.28;1.70;;;;;;;;;;5056612;28;20052;-55
2021/12/03 05:29:53;;;;;;;3.85;2.10;;;;;;;;;;5050345;28;20021;-53
2021/12/03 05:32:19;;;;;;;4.20;1.52;;;;;;;;;;5052909;28;20031;-53
2021/12/03 05:34:45;;;;;;;4.30;1.85;;;;;;;;;;5053531;28;20044;-54
2021/12/03 05:37:11;;;;;;;3.80;1.67;;;;;;;;;;5053113;28;20363;-55
2021/12/03 05:39:37;;;;;;;2.13;1.45;;;;;;;;;;5064430;28;20025;-51
2021/12/03 05:42:04;;;;;;;4.63;1.77;;;;;;;;;;5059858;28;20044;-54
2021/12/03 05:44:30;;;;;;;5.70;1.90;;;;;;;;;;5050221;28;20029;-55
2021/12/03 05:46:57;;;;;;;5.45;2.05;;;;;;;;;;5048814;28;20440;-50
2021/12/03 05:49:23;;;;;;;5.78;2.55;;;;;;;;;;5048559;28;20112;-55
2021/12/03 05:51:49;;;;;;;4.72;2.20;;;;;;;;;;5051828;28;20108;-55
2021/12/03 05:54:15;;;;;;;5.30;2.08;;;;;;;;;;5047293;28;20423;-56
2021/12/03 05:56:41;;;;;;;6.78;1.77;;;;;;;;;;5046828;28;20037;-53
2021/12/03 05:59:07;;;;;;;4.53;1.92;;;;;;;;;;5046349;28;20025;-53
2021/12/03 06:01:33;;;;;;;4.88;1.70;;;;;;;;;;5053656;28;20078;-55
2021/12/03 06:03:59;;;;;;;5.00;2.08;;;;;;;;;;5055455;28;20021;-51
2021/12/03 06:06:25;;;;;;;5.05;2.17;;;;;;;;;;5053734;28;20033;-56
2021/12/03 06:08:51;;;;;;;6.82;2.15;;;;;;;;;;5056091;28;20366;-56
2021/12/03 06:11:17;;;;;;;5.05;2.20;;;;;;;;;;5047482;28;20029;-55
2021/12/03 06:13:43;;;;;;;2.78;1.73;;;;;;;;;;5050585;28;20536;-55
2021/12/03 06:16:10;;;;;;;8.32;2.53;;;;;;;;;;5049222;28;20184;-56
2021/12/03 06:18:36;;;;;;;4.35;1.95;;;;;;;;;;5046516;28;20071;-54
2021/12/03 06:21:04;;;;;;;3.00;1.80;;;;;;;;;;5048391;28;20016;-52
2021/12/03 06:23:30;;;;;;;3.78;2.20;;;;;;;;;;5047563;28;20032;-54
2021/12/03 06:25:58;;;;;;;6.03;2.08;;;;;;;;;;5049799;28;20043;-54
2021/12/03 06:28:24;;;;;;;4.05;2.20;;;;;;;;;;5050147;28;20469;-56
2021/12/03 06:30:50;;;;;;;9.32;2.20;;;;;;;;;;5049971;28;20017;-55
2021/12/03 06:33:16;;;;;;;4.07;2.08;;;;;;;;;;5040022;28;20025;-54
2021/12/03 06:35:42;;;;;;;5.57;2.47;;;;;;;;;;5043248;28;20104;-53
2021/12/03 06:38:08;;;;;;;5.32;2.53;;;;;;;;;;5052668;28;20575;-55
2021/12/03 06:40:34;;;;;;;7.65;2.28;;;;;;;;;;5048965;28;20028;-54
2021/12/03 06:43:00;;;;;;;8.02;2.78;;;;;;;;;;5041968;28;20022;-54
2021/12/03 06:45:26;;;;;;;7.40;2.67;;;;;;;;;;5040151;28;20048;-52
2021/12/03 06:47:52;;;;;;;8.27;2.65;;;;;;;;;;5043519;28;20029;-52
2021/12/03 06:50:18;;;;;;;9.85;3.17;;;;;;;;;;5048464;28;20111;-54
2021/12/03 06:52:55;;;;;;;5.65;2.88;;;;;;;;;;5047942;28;20026;-52
2021/12/03 06:55:22;;;;;;;5.03;2.58;;;;;;;;;;5050264;28;20059;-54
2021/12/03 06:57:48;;;;;;;8.27;2.97;;;;;;;;;;5042495;28;20481;-56
2021/12/03 07:00:15;;;;;;;7.07;2.65;;;;;;;;;;5049626;28;20021;-56
2021/12/03 07:02:41;;;;;;;8.15;2.70;;;;;;;;;;5049708;28;20032;-55
2021/12/03 07:05:08;;;;;;;5.93;2.83;;;;;;;;;;5049058;28;20469;-56
2021/12/03 07:07:35;;;;;;;7.03;2.83;;;;;;;;;;5048106;28;20048;-55
2021/12/03 07:10:01;;;;;;;8.35;3.53;;;;;;;;;;5041391;28;20029;-56
2021/12/03 07:12:28;;;;;;;5.65;3.13;;;;;;;;;;5046223;28;20341;-55
2021/12/03 07:14:54;;;;;;;5.22;2.72;;;;;;;;;;5038682;28;20092;-56
2021/12/03 07:17:20;;;;;;;9.25;3.55;;;;;;;;;;5049353;28;20033;-56
2021/12/03 07:19:46;;;;;;;8.50;2.95;;;;;;;;;;5046619;28;20357;-56
2021/12/03 07:22:12;;;;;;;7.40;3.45;;;;;;;;;;5051260;28;20025;-56
2021/12/03 07:24:38;;;;;;;7.47;3.08;;;;;;;;;;5040279;28;20040;-55
2021/12/03 07:27:05;;;;;;;7.13;3.22;;;;;;;;;;5048387;28;20079;-56
2021/12/03 07:29:32;;;;;;;8.48;3.00;;;;;;;;;;5049491;28;20044;-56
2021/12/03 07:31:59;;;;;;;7.60;3.28;;;;;;;;;;5050652;28;20063;-54
2021/12/03 07:34:25;;;;;;;7.72;3.15;;;;;;;;;;5048023;28;20039;-50
2021/12/03 07:36:51;;;;;;;10.40;3.17;;;;;;;;;;5051879;28;20041;-55
2021/12/03 07:39:17;;;;;;;8.07;3.08;;;;;;;;;;5051768;28;20025;-56
2021/12/03 07:41:43;;;;;;;9.43;3.53;;;;;;;;;;5052235;28;20025;-51
2021/12/03 07:44:09;;;;;;;7.80;3.15;;;;;;;;;;5050892;28;20037;-52
2021/12/03 07:46:35;;;;;;;9.88;3.40;;;;;;;;;;5048353;28;20021;-56
2021/12/03 07:49:02;;;;;;;8.30;3.03;;;;;;;;;;5051357;28;20376;-55
2021/12/03 07:51:29;;;;;;;6.03;3.15;;;;;;;;;;5049418;28;20075;-56
2021/12/03 07:53:54;;;;;;;7.68;2.92;;;;;;;;;;5051725;28;20056;-55
2021/12/03 07:56:20;;;;;;;8.02;2.53;;;;;;;;;;5051648;28;20036;-54
2021/12/03 07:58:46;;;;;;;5.60;3.42;;;;;;;;;;5051331;28;20408;-56
2021/12/03 08:01:13;;;;;;;10.50;3.20;;;;;;;;;;5051436;28;20021;-54
2021/12/03 08:03:39;;;;;;;10.48;3.55;;;;;;;;;;5049415;28;20033;-53
2021/12/03 08:06:09;;;;;;;8.00;3.47;;;;;;;;;;5042616;28;20035;-54
2021/12/03 08:08:37;;;;;;;6.65;3.50;;;;;;;;;;5040875;28;20499;-54
2021/12/03 08:11:03;;;;;;;6.32;3.10;;;;;;;;;;5050090;28;20029;-54
2021/12/03 08:13:29;;;;;;;6.30;2.90;;;;;;;;;;5049069;28;20479;-56
2021/12/03 08:15:55;;;;;;;9.65;3.80;;;;;;;;;;5050581;28;20409;-55
2021/12/03 08:18:21;;;;;;;5.32;2.50;;;;;;;;;;5050807;28;20043;-56
2021/12/03 08:20:47;;;;;;;5.97;2.70;;;;;;;;;;5051340;28;20025;-55
2021/12/03 08:23:13;;;;;;;5.55;2.58;;;;;;;;;;5051806;28;20048;-54
2021/12/03 08:25:40;;;;;;;5.63;3.00;;;;;;;;;;5047353;28;20052;-52
2021/12/03 08:28:06;;;;;;;9.93;3.15;;;;;;;;;;5051427;28;20107;-56
2021/12/03 08:30:32;;;;;;;8.40;3.15;;;;;;;;;;5051972;28;20100;-52
2021/12/03 08:32:59;;;;;;;4.68;2.40;;;;;;;;;;5051580;28;20044;-56
2021/12/03 08:35:25;;;;;;;6.70;2.67;;;;;;;;;;5051008;28;20032;-55
2021/12/03 08:37:51;;;;;;;7.82;2.85;;;;;;;;;;5050814;28;20044;-53
2021/12/03 08:40:18;;;;;;;6.55;2.75;;;;;;;;;;5051663;28;20029;-54
2021/12/03 08:42:45;;;;;;;6.80;2.45;;;;;;;;;;5051888;28;20104;-53
2021/12/03 08:45:11;;;;;;;5.60;2.67;;;;;;;;;;5051641;28;20096;-54
2021/12/03 08:47:38;;;;;;;9.15;3.28;;;;;;;;;;5051153;28;20032;-56
2021/12/03 08:50:11;;;;;;;7.82;2.35;;;;;;;;;;5048870;28;20072;-55
2021/12/03 08:55:21;;;;;;;6.32;3.08;;;;;;;;;;5051815;28;20385;-55
2021/12/03 08:57:47;;;;;;;7.45;2.88;;;;;;;;;;5050783;28;20033;-55
2021/12/03 09:00:15;;;;;;;7.68;3.00;;;;;;;;;;5050512;28;20547;-54
2021/12/03 09:02:42;;;;;;;6.80;2.42;;;;;;;;;;5051667;28;20021;-55
2021/12/03 09:05:08;;;;;;;7.72;2.40;;;;;;;;;;5054404;28;20078;-51
2021/12/03 09:07:34;;;;;;;4.05;2.38;;;;;;;;;;5055227;28;20021;-56
2021/12/03 09:10:00;;;;;;;4.80;2.10;;;;;;;;;;5055513;28;20048;-55
2021/12/03 09:12:27;;;;;;;9.30;3.00;;;;;;;;;;5055337;28;20029;-54
2021/12/03 09:14:56;;;;;;;8.35;2.65;;;;;;;;;;5055142;28;20043;-55
2021/12/03 09:17:33;;;;;;;7.57;2.50;;;;;;;;;;5050380;28;20104;-54
2021/12/03 09:22:57;;;;;;;4.57;2.38;;;;;;;;;;5054613;28;20081;-55
2021/12/03 09:25:35;;;;;;;5.82;2.65;;;;;;;;;;5040986;28;20072;-56
2021/12/03 09:28:05;;;;;;;8.77;2.67;;;;;;;;;;5054928;28;20029;-52
2021/12/03 09:30:35;;;;;;;4.00;2.15;;;;;;;;;;5054908;28;20029;-53
2021/12/03 09:33:02;;;;;;;4.50;2.50;;;;;;;;;;5055206;28;20035;-56
2021/12/03 09:35:30;;;;;;;5.43;2.50;;;;;;;;;;5051545;28;20029;-54
2021/12/03 09:37:56;;;;;;;5.00;2.40;;;;;;;;;;5054300;28;20040;-56
2021/12/03 09:40:25;;;;;;;5.18;2.50;;;;;;;;;;5054697;28;20389;-54
2021/12/03 09:42:51;;;;;;;4.53;2.38;;;;;;;;;;5054794;28;20021;-55
2021/12/03 09:45:17;;;;;;;4.32;2.28;;;;;;;;;;5054374;28;20025;-56
2021/12/03 09:47:44;;;;;;;6.60;2.15;;;;;;;;;;5054631;28;20421;-56
2021/12/03 09:50:14;;;;;;;6.18;2.30;;;;;;;;;;5051830;28;20036;-56
2021/12/03 09:55:14;;;;;;;5.93;2.50;;;;;;;;;;5052203;28;20132;-55
2021/12/03 10:09:02;;;;;;;4.03;2.10;;;;;;;;;;5053913;28;20036;-54
2021/12/03 10:13:18;;;;;;;3.35;1.80;;;;;;;;;;5053469;28;20409;-55
2021/12/03 10:15:50;;;;;;;4.53;2.05;;;;;;;;;;5052831;28;20079;-54
2021/12/03 10:18:31;;;;;;;3.70;1.80;;;;;;;;;;5052514;28;20422;-54
2021/12/03 10:21:52;;;;;;;5.90;1.92;;;;;;;;;;5043965;28;20041;-56
2021/12/03 10:29:34;;;;;;;3.78;1.85;;;;;;;;;;5041610;28;20047;-55
2021/12/03 10:35:11;;;;;;;2.65;1.67;;;;;;;;;;5053741;28;20044;-53
2021/12/03 10:43:24;;;;;;;5.10;1.83;;;;;;;;;;5053163;28;20098;-56
2021/12/03 10:48:52;;;;;;;7.28;2.38;;;;;;;;;;5053077;28;20037;-56
2021/12/03 10:51:34;;;;;;;6.22;2.17;;;;;;;;;;5050532;28;20112;-55
2021/12/03 10:57:03;;;;;;;3.75;1.90;;;;;;;;;;5056637;28;20476;-57
2021/12/03 10:59:56;;;;;;;4.60;1.17;;;;;;;;;;5052648;28;20017;-53
2021/12/03 11:03:27;;;;;;;2.42;1.60;;;;;;;;;;5050441;28;20028;-57
2021/12/03 11:05:49;;;;;;;3.55;1.85;;;;;;;;;;5044133;28;20902;-56
2021/12/03 11:08:29;;;;;;;2.90;1.20;;;;;;;;;;5049117;28;20033;-57
2021/12/03 11:11:23;;;;;;;3.30;1.70;;;;;;;;;;5044336;28;20030;-56
2021/12/03 11:14:56;;;;;;;3.20;1.48;;;;;;;;;;5051778;28;20060;-56
2021/12/03 11:17:20;;;;;;;3.58;1.83;;;;;;;;;;5043517;28;20062;-57
2021/12/03 11:25:39;;;;;;;6.20;1.65;;;;;;;;;;5044011;28;20029;-56
2021/12/03 11:33:42;;;;;;;2.35;1.38;;;;;;;;;;5051850;28;20033;-54
2021/12/03 11:52:26;;;;;;;3.83;1.70;;;;;;;;;;5056283;28;20040;-54
2021/12/03 11:55:40;;;;;;;3.03;1.73;;;;;;;;;;5047795;28;20381;-56
2021/12/03 12:03:53;;;;;;;8.63;1.98;;;;;;;;;;5052385;28;20032;-55
2021/12/03 12:09:05;;;;;;;5.07;1.88;;;;;;;;;;5062062;28;20043;-56
2021/12/03 12:12:15;;;;;;;4.20;1.65;;;;;;;;;;5050150;28;20032;-56
2021/12/03 12:23:38;;;;;;;4.85;1.98;;;;;;;;;;5062135;28;20028;-56
2021/12/03 12:26:04;;;;;;;2.63;1.63;;;;;;;;;;5061670;28;20095;-54
2021/12/03 13:00:28;;;;;;;5.63;2.05;;;;;;;;;;5052388;28;20059;-55
2021/12/03 13:03:42;;;;;;;4.75;1.92;;;;;;;;;;5054612;28;20037;-52
2021/12/03 13:07:04;;;;;;;6.57;2.92;;;;;;;;;;5051413;28;20687;-55
2021/12/03 13:09:21;;;;;;;4.93;2.50;;;;;;;;;;5054193;28;20032;-55
2021/12/03 13:37:11;;;;;;;5.88;2.58;;;;;;;;;;5046061;28;20089;-53
2021/12/03 13:39:50;;;;;;;10.70;3.42;;;;;;;;;;5053690;28;20123;-55
2021/12/03 13:45:56;;;;;;;5.22;2.70;;;;;;;;;;5052713;28;20114;-55
2021/12/03 14:04:21;;;;;;;6.50;3.15;;;;;;;;;;5048672;28;20021;-54
2021/12/03 14:09:49;;;;;;;7.63;3.70;;;;;;;;;;5049680;28;20040;-56
2021/12/03 14:19:14;;;;;;;7.60;3.88;;;;;;;;;;5068372;28;20032;-53
2021/12/03 14:22:14;;;;;;;11.10;4.88;;;;;;;;;;5046188;28;20466;-56
2021/12/03 14:40:35;;;;;;;6.88;3.97;;;;;;;;;;5047993;28;20053;-56
2021/12/03 14:43:23;;;;;;;8.30;4.53;;;;;;;;;;5047758;28;20031;-56
2021/12/03 14:46:10;;;;;;;8.95;4.10;;;;;;;;;;5047501;28;20126;-54
2021/12/03 14:48:44;;;;;;;8.73;4.53;;;;;;;;;;5051332;28;21772;-54
2021/12/03 14:51:30;;;;;;;11.07;5.47;;;;;;;;;;5049394;28;20029;-54
2021/12/03 14:56:48;;;;;;;13.93;5.20;;;;;;;;;;5048788;28;20047;-53
2021/12/03 14:59:28;;;;;;;11.00;4.28;;;;;;;;;;5050394;28;20033;-56
2021/12/03 15:02:03;;;;;;;8.77;5.03;;;;;;;;;;5049594;28;20033;-56
2021/12/03 15:04:50;;;;;;;8.45;4.15;;;;;;;;;;5053143;28;20411;-54
2021/12/03 15:07:21;;;;;;;9.45;4.53;;;;;;;;;;5047278;28;20026;-56
2021/12/03 15:09:49;;;;;;;8.27;4.20;;;;;;;;;;5048614;28;20025;-55
2021/12/03 15:13:01;;;;;;;8.82;4.28;;;;;;;;;;5051566;28;20037;-56
2021/12/03 15:21:11;;;;;;;11.07;4.75;;;;;;;;;;5048520;28;20580;-56
2021/12/03 15:24:04;;;;;;;9.98;4.53;;;;;;;;;;5049139;28;20060;-56
2021/12/03 15:26:47;;;;;;;9.30;4.00;;;;;;;;;;5048118;28;20127;-54
2021/12/03 15:32:06;;;;;;;7.65;4.03;;;;;;;;;;5046457;28;20040;-56
2021/12/03 15:34:41;;;;;;;7.65;4.43;;;;;;;;;;5049572;28;20029;-54
2021/12/03 15:37:33;;;;;;;6.45;3.22;;;;;;;;;;5048606;28;20049;-55
2021/12/03 16:04:36;;;;;;;9.00;3.90;;;;;;;;;;5050691;28;20461;-51
2021/12/03 16:07:14;;;;;;;9.98;3.97;;;;;;;;;;5050579;28;20029;-54
2021/12/03 16:09:59;;;;;;;7.07;3.88;;;;;;;;;;5046804;28;20055;-53
2021/12/03 16:12:37;;;;;;;8.43;3.95;;;;;;;;;;5048040;28;20477;-54
2021/12/03 16:17:44;;;;;;;7.63;3.92;;;;;;;;;;5043661;28;20041;-50
2021/12/03 16:24:02;;;;;;;8.55;4.47;;;;;;;;;;5040203;28;20029;-56
2021/12/03 16:26:10;;;;;;;6.85;3.95;;;;;;;;;;5031717;28;20363;-56
2021/12/03 16:45:18;;;;;;;8.75;3.85;;;;;;;;;;5044998;28;20444;-56
2021/12/03 16:51:04;;;;;;;5.85;3.00;;;;;;;;;;5041623;28;20501;-55
2021/12/03 16:53:07;;;;;;;6.07;3.60;;;;;;;;;;5040282;28;20040;-56
2021/12/03 16:55:33;;;;;;;9.93;4.20;;;;;;;;;;5048057;28;20051;-56
2021/12/03 16:57:59;;;;;;;6.60;3.63;;;;;;;;;;5049607;28;20041;-56
2021/12/03 17:00:30;;;;;;;6.88;2.95;;;;;;;;;;5058087;28;20342;-55
2021/12/03 17:03:12;;;;;;;8.07;3.88;;;;;;;;;;5056476;28;20025;-56
2021/12/03 17:08:29;;;;;;;9.20;3.10;;;;;;;;;;5060261;28;20120;-54
2021/12/03 17:13:54;;;;;;;5.57;2.88;;;;;;;;;;5058006;28;20452;-56
2021/12/03 17:16:44;;;;;;;7.97;3.80;;;;;;;;;;5051959;28;20069;-56
2021/12/03 17:46:19;;;;;;;6.47;2.50;;;;;;;;;;5049783;28;20538;-54
2021/12/03 17:51:54;;;;;;;4.60;2.67;;;;;;;;;;5059153;28;20033;-56
2021/12/03 17:56:48;;;;;;;5.55;2.85;;;;;;;;;;5054067;28;20035;-54
2021/12/03 17:59:28;;;;;;;7.40;2.60;;;;;;;;;;5045327;28;20527;-56
2021/12/03 18:04:56;;;;;;;6.63;3.17;;;;;;;;;;5053278;28;20036;-55
2021/12/03 18:10:41;;;;;;;9.90;3.30;;;;;;;;;;5058157;28;20082;-55
2021/12/03 18:18:38;;;;;;;4.80;2.63;;;;;;;;;;5050542;28;20048;-56
2021/12/03 18:48:34;;;;;;;5.15;2.42;;;;;;;;;;5052335;28;20045;-56
2021/12/03 18:51:25;;;;;;;6.18;2.95;;;;;;;;;;5053064;28;20035;-52
2021/12/03 18:53:59;;;;;;;8.63;3.00;;;;;;;;;;5040925;28;20041;-52
2021/12/03 18:56:42;;;;;;;10.32;3.30;;;;;;;;;;5052429;28;20113;-56
2021/12/03 18:59:09;;;;;;;6.88;2.95;;;;;;;;;;5048254;28;20024;-55
2021/12/03 19:01:35;;;;;;;5.25;3.17;;;;;;;;;;5049103;28;20033;-54
2021/12/03 19:04:19;;;;;;;11.70;3.97;;;;;;;;;;5056162;28;20101;-56
2021/12/03 19:06:51;;;;;;;7.38;3.08;;;;;;;;;;5047434;28;20361;-55
2021/12/03 19:09:22;;;;;;;7.22;3.63;;;;;;;;;;5058116;28;20032;-56
2021/12/03 19:14:16;;;;;;;17.90;4.28;;;;;;;;;;5059428;28;20032;-56
2021/12/03 19:16:42;;;;;;;6.22;3.92;;;;;;;;;;5046313;28;20482;-55
2021/12/03 19:19:09;;;;;;;10.30;3.65;;;;;;;;;;5053916;28;20372;-56
2021/12/03 19:21:39;;;;;;;7.85;4.13;;;;;;;;;;5053110;28;20029;-56
2021/12/03 19:24:06;;;;;;;9.35;3.95;;;;;;;;;;5054239;28;20033;-55
2021/12/03 19:26:33;;;;;;;8.07;4.07;;;;;;;;;;5048365;28;20092;-53
2021/12/03 19:29:01;;;;;;;10.00;4.18;;;;;;;;;;5052795;28;20033;-55
2021/12/03 19:31:27;;;;;;;11.68;4.07;;;;;;;;;;5050657;28;20026;-53
2021/12/03 19:33:53;;;;;;;12.70;4.45;;;;;;;;;;5050692;28;20108;-55
2021/12/03 19:36:24;;;;;;;10.60;5.22;;;;;;;;;;5048264;28;20465;-51
2021/12/03 19:38:53;;;;;;;6.75;4.00;;;;;;;;;;5045373;28;20037;-55
2021/12/03 19:41:31;;;;;;;6.50;4.13;;;;;;;;;;5055576;28;20028;-55
2021/12/03 19:44:00;;;;;;;8.02;3.97;;;;;;;;;;5044566;28;20021;-52
2021/12/03 19:46:31;;;;;;;7.05;3.70;;;;;;;;;;5051100;28;20025;-55
2021/12/03 19:49:05;;;;;;;10.55;4.47;;;;;;;;;;5051809;28;20056;-56
2021/12/03 19:51:34;;;;;;;6.10;3.55;;;;;;;;;;5051879;28;20052;-55
2021/12/03 19:54:00;;;;;;;8.48;3.70;;;;;;;;;;5049441;28;20025;-51
2021/12/03 19:56:27;;;;;;;7.72;4.00;;;;;;;;;;5059463;28;20033;-56
2021/12/03 19:58:54;;;;;;;5.70;3.20;;;;;;;;;;5067623;28;20688;-56
2021/12/03 20:01:20;;;;;;;6.65;3.35;;;;;;;;;;5063319;28;20346;-55
2021/12/03 20:03:48;;;;;;;6.72;3.53;;;;;;;;;;5069982;28;20020;-56
2021/12/03 20:06:14;;;;;;;6.65;3.75;;;;;;;;;;5066947;28;20108;-54
2021/12/03 20:08:40;;;;;;;7.18;3.38;;;;;;;;;;5053312;28;20077;-56
2021/12/03 20:11:08;;;;;;;7.43;3.70;;;;;;;;;;5063678;28;20115;-56
2021/12/03 20:13:34;;;;;;;10.65;3.83;;;;;;;;;;5061097;28;20056;-54
2021/12/03 20:16:11;;;;;;;6.45;3.83;;;;;;;;;;5049360;28;20082;-56
2021/12/03 20:18:52;;;;;;;12.02;3.97;;;;;;;;;;5049997;28;20071;-55
2021/12/03 20:21:19;;;;;;;8.00;4.00;;;;;;;;;;5050597;28;20021;-56
2021/12/03 20:24:03;;;;;;;8.00;4.13;;;;;;;;;;5050814;28;20021;-53
2021/12/03 20:29:06;;;;;;;8.50;5.37;;;;;;;;;;5047078;28;20033;-54